Time,TemperatureF,DewpointF,PressureIn,WindDirection,WindDirectionDegrees,WindSpeedMPH,WindSpeedGustMPH,Humidity,HourlyPrecipIn,Conditions,Clouds,dailyrainin,SoftwareType,DateUTC
2013-04-04 00:02:00,32.0,-99.9,30.20,South,180,7.0,13.0,-999,-99.99,,,-99.99,,2013-04-04 05:02:00,
2013-04-04 00:13:00,32.0,-99.9,30.20,South,180,7.0,13.0,-999,-99.99,,,-99.99,,2013-04-04 05:13:00,
2013-04-04 00:23:00,32.0,-99.9,30.20,South,180,7.0,13.0,-999,-99.99,,,-99.99,,2013-04-04 05:23:00,
2013-04-04 00:32:00,32.0,-99.9,30.20,South,180,7.0,13.0,-999,-99.99,,,-99.99,,2013-04-04 05:32:00,
2013-04-04 00:40:00,33.0,-99.9,30.17,South,170,5.0,14.0,-999,-99.99,,,-99.99,,2013-04-04 05:40:00,
2013-04-04 01:03:00,33.0,-99.9,30.17,South,170,5.0,14.0,-999,-99.99,,,-99.99,,2013-04-04 06:03:00,
2013-04-04 01:13:00,33.0,-99.9,30.17,South,170,5.0,14.0,-999,-99.99,,,-99.99,,2013-04-04 06:13:00,
2013-04-04 01:22:00,33.0,-99.9,30.17,South,170,5.0,14.0,-999,-99.99,,,-99.99,,2013-04-04 06:22:00,
2013-04-04 01:33:00,33.0,-99.9,30.17,South,170,5.0,14.0,-999,-99.99,,,-99.99,,2013-04-04 06:33:00,
2013-04-04 01:40:00,33.0,-99.9,30.14,South,190,8.0,14.0,-999,-99.99,,,-99.99,,2013-04-04 06:40:00,
2013-04-04 02:02:00,33.0,-99.9,30.14,South,190,8.0,14.0,-999,-99.99,,,-99.99,,2013-04-04 07:02:00,
2013-04-04 02:13:00,33.0,-99.9,30.14,South,190,8.0,14.0,-999,-99.99,,,-99.99,,2013-04-04 07:13:00,
2013-04-04 02:22:00,33.0,-99.9,30.14,South,190,8.0,14.0,-999,-99.99,,,-99.99,,2013-04-04 07:22:00,
2013-04-04 02:32:00,33.0,-99.9,30.14,South,190,8.0,14.0,-999,-99.99,,,-99.99,,2013-04-04 07:32:00,
2013-04-04 02:40:00,32.0,-99.9,30.11,South,170,7.0,13.0,-999,-99.99,,,-99.99,,2013-04-04 07:40:00,
2013-04-04 03:03:00,32.0,-99.9,30.11,South,170,7.0,13.0,-999,-99.99,,,-99.99,,2013-04-04 08:03:00,
2013-04-04 03:12:00,32.0,-99.9,30.11,South,170,7.0,13.0,-999,-99.99,,,-99.99,,2013-04-04 08:12:00,
2013-04-04 03:23:00,32.0,-99.9,30.11,South,170,7.0,13.0,-999,-99.99,,,-99.99,,2013-04-04 08:23:00,
2013-04-04 03:32:00,32.0,-99.9,30.11,South,170,7.0,13.0,-999,-99.99,,,-99.99,,2013-04-04 08:32:00,
2013-04-04 03:40:00,32.0,-99.9,30.09,SSE,150,6.0,10.0,-999,-99.99,,,-99.99,,2013-04-04 08:40:00,
2013-04-04 04:03:00,32.0,-99.9,30.09,SSE,150,6.0,10.0,-999,-99.99,,,-99.99,,2013-04-04 09:03:00,
2013-04-04 04:13:00,32.0,-99.9,30.09,SSE,150,6.0,10.0,-999,-99.99,,,-99.99,,2013-04-04 09:13:00,
2013-04-04 04:23:00,32.0,-99.9,30.09,SSE,150,6.0,10.0,-999,-99.99,,,-99.99,,2013-04-04 09:23:00,
2013-04-04 04:34:00,32.0,-99.9,30.09,SSE,150,6.0,10.0,-999,-99.99,,,-99.99,,2013-04-04 09:34:00,
2013-04-04 04:40:00,33.0,-99.9,30.06,South,170,5.0,15.0,-999,-99.99,,,-99.99,,2013-04-04 09:40:00,
2013-04-04 05:04:00,33.0,-99.9,30.06,South,170,5.0,15.0,-999,-99.99,,,-99.99,,2013-04-04 10:04:00,
2013-04-04 05:13:00,33.0,-99.9,30.06,South,170,5.0,15.0,-999,-99.99,,,-99.99,,2013-04-04 10:13:00,
2013-04-04 05:25:00,33.0,-99.9,30.06,South,170,5.0,15.0,-999,-99.99,,,-99.99,,2013-04-04 10:25:00,
2013-04-04 05:34:00,33.0,-99.9,30.06,South,170,5.0,15.0,-999,-99.99,,,-99.99,,2013-04-04 10:34:00,
2013-04-04 05:40:00,33.0,-99.9,30.03,SSE,160,9.0,14.0,-999,-99.99,,,-99.99,,2013-04-04 10:40:00,
2013-04-04 06:03:00,33.0,-99.9,30.03,SSE,160,9.0,14.0,-999,-99.99,,,-99.99,,2013-04-04 11:03:00,
2013-04-04 06:13:00,33.0,-99.9,30.03,SSE,160,9.0,14.0,-999,-99.99,,,-99.99,,2013-04-04 11:13:00,
2013-04-04 06:23:00,33.0,-99.9,30.03,SSE,160,9.0,14.0,-999,-99.99,,,-99.99,,2013-04-04 11:23:00,
2013-04-04 06:33:00,33.0,-99.9,30.03,SSE,160,9.0,14.0,-999,-99.99,,,-99.99,,2013-04-04 11:33:00,
2013-04-04 06:40:00,34.0,-99.9,30.03,South,180,3.0,9.0,-999,-99.99,,,-99.99,,2013-04-04 11:40:00,
2013-04-04 07:03:00,34.0,-99.9,30.03,South,180,3.0,9.0,-999,-99.99,,,-99.99,,2013-04-04 12:03:00,
2013-04-04 07:13:00,34.0,-99.9,30.03,South,180,3.0,9.0,-999,-99.99,,,-99.99,,2013-04-04 12:13:00,
2013-04-04 07:23:00,34.0,-99.9,30.03,South,180,3.0,9.0,-999,-99.99,,,-99.99,,2013-04-04 12:23:00,
2013-04-04 07:33:00,34.0,-99.9,30.03,South,180,3.0,9.0,-999,-99.99,,,-99.99,,2013-04-04 12:33:00,
2013-04-04 07:40:00,38.0,-99.9,30.02,SSW,210,10.0,20.0,-999,-99.99,,,-99.99,,2013-04-04 12:40:00,
2013-04-04 08:03:00,38.0,-99.9,30.02,SSW,210,10.0,20.0,-999,-99.99,,,-99.99,,2013-04-04 13:03:00,
2013-04-04 08:13:00,38.0,-99.9,30.02,SSW,210,10.0,20.0,-999,-99.99,,,-99.99,,2013-04-04 13:13:00,
2013-04-04 08:22:00,38.0,-99.9,30.02,SSW,210,10.0,20.0,-999,-99.99,,,-99.99,,2013-04-04 13:22:00,
2013-04-04 08:33:00,38.0,-99.9,30.02,SSW,210,10.0,20.0,-999,-99.99,,,-99.99,,2013-04-04 13:33:00,
2013-04-04 08:40:00,39.0,-99.9,30.00,SW,220,8.0,21.0,-999,-99.99,,,-99.99,,2013-04-04 13:40:00,
2013-04-04 09:04:00,39.0,-99.9,30.00,SW,220,8.0,21.0,-999,-99.99,,,-99.99,,2013-04-04 14:04:00,
2013-04-04 09:13:00,39.0,-99.9,30.00,SW,220,8.0,21.0,-999,-99.99,,,-99.99,,2013-04-04 14:13:00,
2013-04-04 09:22:00,39.0,-99.9,30.00,SW,220,8.0,21.0,-999,-99.99,,,-99.99,,2013-04-04 14:22:00,
2013-04-04 09:33:00,39.0,-99.9,30.00,SW,220,8.0,21.0,-999,-99.99,,,-99.99,,2013-04-04 14:33:00,
2013-04-04 10:03:00,39.0,-99.9,29.98,SSW,210,10.0,18.0,-999,-99.99,,,-99.99,,2013-04-04 15:03:00,
2013-04-04 10:13:00,39.0,-99.9,29.98,SSW,210,10.0,18.0,-999,-99.99,,,-99.99,,2013-04-04 15:13:00,
2013-04-04 10:23:00,39.0,-99.9,29.98,SSW,210,10.0,18.0,-999,-99.99,,,-99.99,,2013-04-04 15:23:00,
2013-04-04 10:34:00,39.0,-99.9,29.98,SSW,210,10.0,18.0,-999,-99.99,,,-99.99,,2013-04-04 15:34:00,
2013-04-04 10:40:00,39.0,-99.9,29.97,SW,230,8.0,17.0,-999,-99.99,,,-99.99,,2013-04-04 15:40:00,
2013-04-04 11:04:00,39.0,-99.9,29.97,SW,230,8.0,17.0,-999,-99.99,,,-99.99,,2013-04-04 16:04:00,
2013-04-04 11:13:00,39.0,-99.9,29.97,SW,230,8.0,17.0,-999,-99.99,,,-99.99,,2013-04-04 16:13:00,
2013-04-04 11:25:00,39.0,-99.9,29.97,SW,230,8.0,17.0,-999,-99.99,,,-99.99,,2013-04-04 16:25:00,
2013-04-04 11:33:00,39.0,-99.9,29.97,SW,230,8.0,17.0,-999,-99.99,,,-99.99,,2013-04-04 16:33:00,
2013-04-04 11:40:00,40.0,-99.9,29.96,SW,220,7.0,16.0,-999,-99.99,,,-99.99,,2013-04-04 16:40:00,
2013-04-04 12:03:00,40.0,-99.9,29.96,SW,220,7.0,16.0,-999,-99.99,,,-99.99,,2013-04-04 17:03:00,
2013-04-04 12:14:00,40.0,-99.9,29.96,SW,220,7.0,16.0,-999,-99.99,,,-99.99,,2013-04-04 17:14:00,
2013-04-04 12:23:00,40.0,-99.9,29.96,SW,220,7.0,16.0,-999,-99.99,,,-99.99,,2013-04-04 17:23:00,
2013-04-04 12:33:00,40.0,-99.9,29.96,SW,220,7.0,16.0,-999,-99.99,,,-99.99,,2013-04-04 17:33:00,
2013-04-04 12:40:00,36.0,-99.9,29.95,South,190,3.0,10.0,-999,-99.99,,,-99.99,,2013-04-04 17:40:00,
2013-04-04 13:03:00,36.0,-99.9,29.95,South,190,3.0,10.0,-999,-99.99,,,-99.99,,2013-04-04 18:03:00,
2013-04-04 13:13:00,36.0,-99.9,29.95,South,190,3.0,10.0,-999,-99.99,,,-99.99,,2013-04-04 18:13:00,
2013-04-04 13:23:00,36.0,-99.9,29.95,South,190,3.0,10.0,-999,-99.99,,,-99.99,,2013-04-04 18:23:00,
2013-04-04 13:33:00,36.0,-99.9,29.95,South,190,3.0,10.0,-999,-99.99,,,-99.99,,2013-04-04 18:33:00,
2013-04-04 13:40:00,42.0,-99.9,29.93,SSW,210,9.0,14.0,-999,-99.99,,,-99.99,,2013-04-04 18:40:00,
2013-04-04 14:02:00,42.0,-99.9,29.93,SSW,210,9.0,14.0,-999,-99.99,,,-99.99,,2013-04-04 19:02:00,
2013-04-04 14:12:00,42.0,-99.9,29.93,SSW,210,9.0,14.0,-999,-99.99,,,-99.99,,2013-04-04 19:12:00,
2013-04-04 14:22:00,42.0,-99.9,29.93,SSW,210,9.0,14.0,-999,-99.99,,,-99.99,,2013-04-04 19:22:00,
2013-04-04 14:33:00,42.0,-99.9,29.93,SSW,210,9.0,14.0,-999,-99.99,,,-99.99,,2013-04-04 19:33:00,
2013-04-04 14:40:00,45.0,-99.9,29.91,SW,220,6.0,14.0,-999,-99.99,,,-99.99,,2013-04-04 19:40:00,
2013-04-04 15:04:00,45.0,-99.9,29.91,SW,220,6.0,14.0,-999,-99.99,,,-99.99,,2013-04-04 20:04:00,
2013-04-04 15:12:00,45.0,-99.9,29.91,SW,220,6.0,14.0,-999,-99.99,,,-99.99,,2013-04-04 20:12:00,
2013-04-04 15:23:00,45.0,-99.9,29.91,SW,220,6.0,14.0,-999,-99.99,,,-99.99,,2013-04-04 20:23:00,
2013-04-04 15:33:00,45.0,-99.9,29.91,SW,220,6.0,14.0,-999,-99.99,,,-99.99,,2013-04-04 20:33:00,
2013-04-04 15:40:00,47.0,-99.9,29.90,SW,220,8.0,17.0,-999,-99.99,,,-99.99,,2013-04-04 20:40:00,
2013-04-04 16:03:00,47.0,-99.9,29.90,SW,220,8.0,17.0,-999,-99.99,,,-99.99,,2013-04-04 21:03:00,
2013-04-04 16:12:00,47.0,-99.9,29.90,SW,220,8.0,17.0,-999,-99.99,,,-99.99,,2013-04-04 21:12:00,
2013-04-04 16:22:00,47.0,-99.9,29.90,SW,220,8.0,17.0,-999,-99.99,,,-99.99,,2013-04-04 21:22:00,
2013-04-04 16:33:00,47.0,-99.9,29.90,SW,220,8.0,17.0,-999,-99.99,,,-99.99,,2013-04-04 21:33:00,
2013-04-04 16:40:00,48.0,-99.9,29.90,SW,220,8.0,15.0,-999,-99.99,,,-99.99,,2013-04-04 21:40:00,
2013-04-04 17:04:00,48.0,-99.9,29.90,SW,220,8.0,15.0,-999,-99.99,,,-99.99,,2013-04-04 22:04:00,
2013-04-04 17:12:00,48.0,-99.9,29.90,SW,220,8.0,15.0,-999,-99.99,,,-99.99,,2013-04-04 22:12:00,
2013-04-04 17:23:00,48.0,-99.9,29.90,SW,220,8.0,15.0,-999,-99.99,,,-99.99,,2013-04-04 22:23:00,
2013-04-04 17:34:00,48.0,-99.9,29.90,SW,220,8.0,15.0,-999,-99.99,,,-99.99,,2013-04-04 22:34:00,
2013-04-04 17:40:00,49.0,-99.9,29.92,WSW,250,6.0,10.0,-999,-99.99,,,-99.99,,2013-04-04 22:40:00,
2013-04-04 18:03:00,49.0,-99.9,29.92,WSW,250,6.0,10.0,-999,-99.99,,,-99.99,,2013-04-04 23:03:00,
2013-04-04 18:13:00,49.0,-99.9,29.92,WSW,250,6.0,10.0,-999,-99.99,,,-99.99,,2013-04-04 23:13:00,
2013-04-04 18:22:00,49.0,-99.9,29.92,WSW,250,6.0,10.0,-999,-99.99,,,-99.99,,2013-04-04 23:22:00,
2013-04-04 18:32:00,49.0,-99.9,29.92,WSW,250,6.0,10.0,-999,-99.99,,,-99.99,,2013-04-04 23:32:00,
2013-04-04 18:40:00,48.0,-99.9,29.93,West,270,5.0,8.0,-999,-99.99,,,-99.99,,2013-04-04 23:40:00,
2013-04-04 19:03:00,48.0,-99.9,29.93,West,270,5.0,8.0,-999,-99.99,,,-99.99,,2013-04-05 00:03:00,
2013-04-04 19:12:00,48.0,-99.9,29.93,West,270,5.0,8.0,-999,-99.99,,,-99.99,,2013-04-05 00:12:00,
2013-04-04 19:22:00,48.0,-99.9,29.93,West,270,5.0,8.0,-999,-99.99,,,-99.99,,2013-04-05 00:22:00,
2013-04-04 19:33:00,48.0,-99.9,29.93,West,270,5.0,8.0,-999,-99.99,,,-99.99,,2013-04-05 00:33:00,
2013-04-04 19:40:00,36.0,-99.9,29.96,NW,310,5.0,6.0,-999,-99.99,,,-99.99,,2013-04-05 00:40:00,
2013-04-04 19:52:00,-999.0,-99.9,29.95,NNW,330,6.0,24.0,-999,-99.99,,,-99.99,,2013-04-05 00:52:00,
2013-04-04 20:03:00,36.0,-99.9,29.96,NW,310,5.0,6.0,-999,-99.99,,,-99.99,,2013-04-05 01:03:00,
2013-04-04 20:12:00,36.0,-99.9,29.96,NW,310,5.0,6.0,-999,-99.99,,,-99.99,,2013-04-05 01:12:00,
2013-04-04 20:22:00,36.0,-99.9,29.96,NW,310,5.0,6.0,-999,-99.99,,,-99.99,,2013-04-05 01:22:00,
2013-04-04 20:32:00,36.0,-99.9,29.96,NW,310,5.0,6.0,-999,-99.99,,,-99.99,,2013-04-05 01:32:00,
2013-04-04 20:40:00,38.0,-99.9,30.00,NE,40,8.0,15.0,-999,-99.99,,,-99.99,,2013-04-05 01:40:00,
2013-04-04 21:03:00,38.0,-99.9,30.00,NE,40,8.0,15.0,-999,-99.99,,,-99.99,,2013-04-05 02:03:00,
2013-04-04 21:12:00,38.0,-99.9,30.00,NE,40,8.0,15.0,-999,-99.99,,,-99.99,,2013-04-05 02:12:00,
2013-04-04 21:22:00,38.0,-99.9,30.00,NE,40,8.0,15.0,-999,-99.99,,,-99.99,,2013-04-05 02:22:00,
2013-04-04 21:32:00,38.0,-99.9,30.00,NE,40,8.0,15.0,-999,-99.99,,,-99.99,,2013-04-05 02:32:00,
2013-04-04 21:40:00,36.0,-99.9,30.03,North,10,15.0,18.0,-999,-99.99,,,-99.99,,2013-04-05 02:40:00,
2013-04-04 22:02:00,36.0,-99.9,30.03,North,10,15.0,18.0,-999,-99.99,,,-99.99,,2013-04-05 03:02:00,
2013-04-04 22:12:00,36.0,-99.9,30.03,North,10,15.0,18.0,-999,-99.99,,,-99.99,,2013-04-05 03:12:00,
2013-04-04 22:22:00,36.0,-99.9,30.03,North,10,15.0,18.0,-999,-99.99,,,-99.99,,2013-04-05 03:22:00,
2013-04-04 22:33:00,36.0,-99.9,30.03,North,10,15.0,18.0,-999,-99.99,,,-99.99,,2013-04-05 03:33:00,
2013-04-04 22:40:00,35.0,-99.9,30.04,North,360,9.0,14.0,-999,-99.99,,,-99.99,,2013-04-05 03:40:00,
2013-04-04 23:03:00,35.0,-99.9,30.04,North,360,9.0,14.0,-999,-99.99,,,-99.99,,2013-04-05 04:03:00,
2013-04-04 23:13:00,35.0,-99.9,30.04,North,360,9.0,14.0,-999,-99.99,,,-99.99,,2013-04-05 04:13:00,
2013-04-04 23:23:00,35.0,-99.9,30.04,North,360,9.0,14.0,-999,-99.99,,,-99.99,,2013-04-05 04:23:00,
2013-04-04 23:33:00,35.0,-99.9,30.04,North,360,9.0,14.0,-999,-99.99,,,-99.99,,2013-04-05 04:33:00,
2013-04-04 23:40:00,34.0,-99.9,30.05,NNW,340,9.0,11.0,-999,-99.99,,,-99.99,,2013-04-05 04:40:00,